ADDS METAR Data INFO
IDs: Format: Raw Decoded Include TAF

Data at: 1506 UTC 23 Oct 2017

KROC 231454Z 19015G22KT 10SM FEW140 BKN180 OVC250 19/12 A3006 RMK AO2 SLP180 T01890117 58015
KROC 231354Z 18010KT 10SM FEW140 BKN180 OVC250 17/12 A3008 RMK AO2 SLP189 T01720117
KROC 231254Z 18007KT 10SM FEW140 SCT180 OVC250 17/11 A3010 RMK AO2 SLP194 T01670111
KROC 231154Z 18007KT 10SM FEW140 SCT180 OVC250 16/11 A3010 RMK AO2 SLP196 BINOVC T01610111 10178 20156 56007
KROC 231054Z 19007KT 10SM FEW140 FEW180 BKN250 16/11 A3011 RMK AO2 SLP198 T01610106
KROC 230954Z 20009KT 10SM FEW180 BKN250 17/11 A3012 RMK AO2 SLP200 T01670106
KROC 230854Z 19007KT 10SM FEW180 BKN250 17/11 A3013 RMK AO2 SLP202 T01720111 58007
KROC 230754Z 21007KT 10SM FEW180 BKN250 17/11 A3014 RMK AO2 SLP205 T01720106
KROC 230654Z 20009KT 10SM SCT250 17/11 A3014 RMK AO2 SLP208 T01720106
KROC 230554Z 19009KT 10SM FEW250 18/11 A3015 RMK AO2 SLP209 T01780111 10194 20172 56012
KROC 230454Z 17007KT 10SM SCT250 18/12 A3016 RMK AO2 SLP212 T01780117 402390083
KROC 230354Z 18010KT 10SM SCT200 BKN250 18/12 A3017 RMK AO2 SLP218 T01830117
KROC 230254Z 16007KT 10SM SCT200 BKN250 18/12 A3018 RMK AO2 SLP223 T01830117 50000
KROC 230154Z 17007KT 10SM SCT220 BKN270 18/11 A3020 RMK AO2 SLP229 T01830111
KROC 230054Z 16006KT 10SM FEW150 SCT220 BKN270 19/12 A3019 RMK AO2 SLP228 T01890117
KROC 222354Z 15007KT 10SM FEW150 SCT220 BKN270 19/12 A3018 RMK AO2 SLP224 T01940117 10239 20189 55002
KROC 222254Z 13005KT 10SM FEW160 SCT220 OVC270 19/13 A3018 RMK AO2 SLP222 T01940133
KROC 222154Z 12005KT 10SM SCT160 BKN220 OVC270 21/13 A3018 RMK AO2 SLP222 T02110133
KROC 222054Z 12007KT 10SM SCT160 BKN220 OVC270 22/13 A3019 RMK AO2 SLP226 T02220133 56017
KROC 221954Z 13004KT 10SM SCT160 BKN220 OVC270 23/12 A3021 RMK AO2 SLP231 T02330122
KROC 221854Z 20007KT 10SM SCT160 BKN210 OVC260 23/12 A3023 RMK AO2 SLP238 T02330117
KROC 221754Z 20006KT 10SM SCT170 BKN210 BKN270 24/12 A3024 RMK AO2 SLP244 T02390117 10239 20106 58012
KROC 221654Z 21005KT 10SM FEW170 BKN210 BKN270 22/11 A3026 RMK AO2 SLP251 T02220111
KROC 221554Z 23009KT 10SM FEW170 BKN200 BKN270 21/10 A3027 RMK AO2 SLP254 T02060100
KROC 221454Z 22009KT 10SM FEW160 SCT200 BKN260 19/09 A3028 RMK AO2 SLP256 T01890094 58006
KROC 221354Z 22006KT 10SM SCT200 BKN270 17/09 A3029 RMK AO2 SLP260 T01670089
KROC 221254Z 23006KT 10SM FEW180 SCT240 13/09 A3029 RMK AO2 SLP263 T01330094
KROC 221154Z 23005KT 10SM FEW130 SCT180 BKN240 11/07 A3030 RMK AO2 SLP263 T01060072 10111 20083 50006
KROC 221054Z COR 24005KT 10SM SCT250 09/07 A3030 RMK AO2 SLP265 T00940072
KROC 220954Z 24003KT 10SM SCT250 09/07 A3030 RMK AO2 SLP263 T00890072
KROC 220854Z 23004KT 10SM SCT250 09/08 A3028 RMK AO2 SLP257 T00940078 53007
KROC 220754Z 00000KT 10SM SCT250 09/08 A3027 RMK AO2 SLP252 T00890078
KROC 220654Z 00000KT 10SM SCT250 10/08 A3026 RMK AO2 SLP250 T01000083
KROC 220554Z 21003KT 10SM SCT250 09/08 A3026 RMK AO2 SLP249 T00940078 10144 20094 55001
KROC 220454Z 22003KT 10SM SCT250 11/08 A3026 RMK AO2 SLP248 T01060083 402330078
KROC 220354Z 22005KT 10SM SCT200 BKN250 12/09 A3026 RMK AO2 SLP249 T01170089